createdAt,value
2018-09-19T00:00:58.458Z,99.90
2018-09-19T00:03:26.646Z,99.90
2018-09-19T00:05:54.817Z,99.90
2018-09-19T00:08:22.929Z,99.90
2018-09-19T00:10:51.229Z,99.90
2018-09-19T00:13:19.398Z,99.90
2018-09-19T00:15:47.595Z,99.90
2018-09-19T00:18:15.762Z,99.90
2018-09-19T00:20:43.857Z,99.90
2018-09-19T00:23:12.043Z,99.90
2018-09-19T00:25:40.236Z,99.90
2018-09-19T00:28:08.485Z,99.90
2018-09-19T00:30:36.646Z,99.90
2018-09-19T00:33:04.789Z,99.90
2018-09-19T00:35:32.865Z,99.90
2018-09-19T00:38:01.048Z,99.90
2018-09-19T00:40:29.151Z,99.90
2018-09-19T00:42:57.326Z,99.90
2018-09-19T00:45:25.517Z,99.90
2018-09-19T00:47:53.753Z,99.90
2018-09-19T00:50:21.782Z,99.90
2018-09-19T00:52:49.862Z,99.90
2018-09-19T00:55:17.973Z,99.90
2018-09-19T00:57:46.134Z,99.90
2018-09-19T01:00:14.231Z,99.90
2018-09-19T01:02:42.414Z,99.90
2018-09-19T01:05:10.503Z,99.90
2018-09-19T01:07:38.678Z,99.90
2018-09-19T01:10:06.922Z,99.90
2018-09-19T01:12:35.109Z,99.90
2018-09-19T01:15:03.263Z,99.90
2018-09-19T01:17:31.432Z,99.90
2018-09-19T01:19:59.649Z,99.90
2018-09-19T01:22:27.798Z,99.90
2018-09-19T01:24:55.885Z,99.90
2018-09-19T01:27:24.073Z,99.90
2018-09-19T01:29:52.266Z,99.90
2018-09-19T01:32:23.929Z,99.90
2018-09-19T01:34:52.062Z,99.90
2018-09-19T01:37:20.198Z,99.90
2018-09-19T01:39:48.320Z,99.90
2018-09-19T01:42:16.406Z,99.90
2018-09-19T01:44:44.580Z,99.90
2018-09-19T01:47:12.737Z,99.90
2018-09-19T01:49:40.967Z,99.90
2018-09-19T01:52:09.113Z,99.90
2018-09-19T01:54:37.415Z,99.90
2018-09-19T01:57:05.593Z,99.90
2018-09-19T01:59:33.674Z,99.90
2018-09-19T02:02:01.762Z,99.90
2018-09-19T02:04:29.916Z,99.90
2018-09-19T02:06:58.033Z,99.90
2018-09-19T02:09:26.213Z,99.90
2018-09-19T02:11:54.321Z,99.90
2018-09-19T02:14:22.501Z,99.90
2018-09-19T02:16:50.724Z,99.90
2018-09-19T02:19:18.871Z,99.90
2018-09-19T02:21:47.995Z,99.90
2018-09-19T02:24:16.154Z,99.90
2018-09-19T02:26:44.247Z,99.90
2018-09-19T02:29:12.437Z,99.90
2018-09-19T02:31:40.617Z,99.90
2018-09-19T02:34:08.709Z,99.90
2018-09-19T02:36:36.779Z,99.90
2018-09-19T02:39:08.447Z,99.90
2018-09-19T02:41:36.837Z,99.90
2018-09-19T02:44:04.939Z,99.90
2018-09-19T02:46:33.121Z,99.90
2018-09-19T02:49:01.297Z,99.90
2018-09-19T02:51:29.393Z,99.90
2018-09-19T02:53:57.574Z,99.90
2018-09-19T02:56:25.667Z,99.90
2018-09-19T02:58:53.846Z,99.90
2018-09-19T03:01:21.949Z,99.90
2018-09-19T03:03:50.120Z,99.90
2018-09-19T03:06:18.212Z,99.90
2018-09-19T03:08:46.422Z,99.90
2018-09-19T03:11:14.571Z,99.90
2018-09-19T03:13:42.678Z,99.90
2018-09-19T03:16:10.864Z,99.90
2018-09-19T03:18:39.046Z,99.90
2018-09-19T03:21:07.247Z,99.90
2018-09-19T03:23:35.439Z,99.90
2018-09-19T03:26:03.594Z,99.90
2018-09-19T03:28:31.689Z,99.90
2018-09-19T03:30:59.874Z,99.90
2018-09-19T03:33:28.077Z,99.90
2018-09-19T03:35:56.261Z,99.90
2018-09-19T03:38:24.454Z,99.90
2018-09-19T03:40:52.626Z,99.90
2018-09-19T03:43:20.813Z,99.90
2018-09-19T03:45:49.103Z,99.90
2018-09-19T03:48:17.349Z,99.90
2018-09-19T03:50:45.476Z,99.90
2018-09-19T03:53:13.677Z,99.90
2018-09-19T03:55:41.854Z,99.90
2018-09-19T03:58:10.125Z,99.90
2018-09-19T04:00:38.233Z,99.90
2018-09-19T04:03:06.414Z,99.90
2018-09-19T04:05:34.608Z,99.90
2018-09-19T04:08:02.789Z,99.90
2018-09-19T04:10:30.978Z,99.90
2018-09-19T04:12:59.078Z,99.90
2018-09-19T04:15:27.240Z,99.90
2018-09-19T04:17:55.546Z,99.90
2018-09-19T04:20:23.642Z,99.90
2018-09-19T04:22:51.816Z,99.90
2018-09-19T04:25:20.003Z,99.90
2018-09-19T04:27:48.189Z,99.90
2018-09-19T04:30:16.354Z,99.90
2018-09-19T04:32:44.567Z,99.90
2018-09-19T04:35:12.802Z,99.90
2018-09-19T04:37:40.918Z,99.90
2018-09-19T04:40:09.241Z,99.90
2018-09-19T04:42:37.606Z,99.90
2018-09-19T04:45:05.878Z,99.90
2018-09-19T04:47:34.025Z,99.90
2018-09-19T04:50:02.153Z,99.90
2018-09-19T04:52:32.136Z,99.90
2018-09-19T04:55:00.271Z,99.90
2018-09-19T04:57:28.422Z,99.90
2018-09-19T04:59:56.553Z,99.90
2018-09-19T05:02:24.756Z,99.90
2018-09-19T05:04:52.914Z,99.90
2018-09-19T05:07:21.022Z,99.90
2018-09-19T05:09:49.181Z,99.90
2018-09-19T05:12:17.294Z,99.90
2018-09-19T05:14:45.466Z,99.90
2018-09-19T05:17:13.679Z,99.90
2018-09-19T05:19:41.843Z,99.90
2018-09-19T05:22:10.018Z,99.90
2018-09-19T05:24:38.124Z,99.90
2018-09-19T05:27:06.322Z,99.90
2018-09-19T05:29:34.575Z,99.90
2018-09-19T05:32:02.774Z,99.90
2018-09-19T05:34:30.979Z,99.90
2018-09-19T05:36:59.171Z,99.90
2018-09-19T05:39:27.357Z,99.90
2018-09-19T05:41:55.536Z,99.90
2018-09-19T05:44:23.727Z,99.90
2018-09-19T05:46:51.919Z,99.90
2018-09-19T05:49:20.105Z,99.90
2018-09-19T05:51:48.274Z,99.90
2018-09-19T05:54:16.473Z,99.90
2018-09-19T05:56:44.653Z,99.90
2018-09-19T05:59:12.878Z,99.90
2018-09-19T06:01:41.031Z,99.90
2018-09-19T06:04:09.225Z,99.90
2018-09-19T06:06:37.626Z,99.90
2018-09-19T06:09:07.819Z,99.90
2018-09-19T06:11:36.026Z,99.90
2018-09-19T06:14:04.228Z,99.90
2018-09-19T06:16:32.494Z,99.90
2018-09-19T06:19:00.590Z,99.90
2018-09-19T06:21:28.779Z,99.90
2018-09-19T06:23:57.079Z,99.90
2018-09-19T06:26:25.253Z,99.90
2018-09-19T06:28:53.660Z,99.90
2018-09-19T06:31:22.370Z,99.90
2018-09-19T06:33:50.853Z,99.90
2018-09-19T06:36:19.036Z,99.90
2018-09-19T06:38:47.437Z,99.90
2018-09-19T06:41:15.599Z,99.90
2018-09-19T06:43:43.791Z,99.90
2018-09-19T06:46:11.980Z,99.90
2018-09-19T06:48:40.144Z,99.90
2018-09-19T06:51:09.255Z,99.90
2018-09-19T06:53:37.641Z,99.90
2018-09-19T06:56:05.744Z,99.90
2018-09-19T06:58:33.926Z,99.90
2018-09-19T07:01:02.110Z,99.90
2018-09-19T07:03:30.302Z,99.90
2018-09-19T07:05:58.378Z,99.90
2018-09-19T07:08:26.566Z,99.90
2018-09-19T07:10:54.757Z,99.90
2018-09-19T07:13:22.937Z,99.90
2018-09-19T07:15:51.133Z,99.90
2018-09-19T07:18:19.310Z,99.90
2018-09-19T07:20:47.406Z,99.90
2018-09-19T07:23:15.478Z,99.90
2018-09-19T07:25:43.671Z,99.90
2018-09-19T07:28:11.845Z,99.90
2018-09-19T07:30:40.058Z,99.90
2018-09-19T07:33:08.250Z,99.90
2018-09-19T07:35:37.338Z,99.90
2018-09-19T07:38:05.442Z,99.90
2018-09-19T07:40:33.638Z,99.90
2018-09-19T07:43:01.830Z,99.90
2018-09-19T07:45:30.011Z,99.90
2018-09-19T07:47:58.194Z,99.90
2018-09-19T07:50:26.362Z,99.90
2018-09-19T07:52:54.551Z,99.90
2018-09-19T07:55:22.760Z,99.90
2018-09-19T07:57:51.555Z,99.90
2018-09-19T08:00:19.726Z,99.90
2018-09-19T08:02:47.824Z,99.90
2018-09-19T08:05:16.002Z,99.90
2018-09-19T08:07:44.198Z,99.90
2018-09-19T08:10:12.363Z,99.90
2018-09-19T08:12:40.561Z,99.90
2018-09-19T08:15:08.756Z,99.90
2018-09-19T08:17:36.942Z,99.90
2018-09-19T08:20:05.115Z,99.90
2018-09-19T08:22:33.372Z,99.90
2018-09-19T08:25:01.510Z,99.90
2018-09-19T08:27:29.692Z,99.90
2018-09-19T08:29:57.865Z,99.90
2018-09-19T08:32:26.063Z,99.90
2018-09-19T08:34:54.241Z,99.90
2018-09-19T08:37:22.434Z,99.90
2018-09-19T08:39:50.606Z,99.90
2018-09-19T08:42:18.810Z,99.90
2018-09-19T08:44:46.905Z,99.90
2018-09-19T08:47:15.074Z,99.40
2018-09-19T08:49:43.258Z,99.40
2018-09-19T08:52:11.472Z,99.90
2018-09-19T08:54:39.661Z,99.20
2018-09-19T08:57:07.857Z,99.00
2018-09-19T08:59:36.572Z,99.60
2018-09-19T09:02:04.703Z,98.90
2018-09-19T09:04:32.893Z,98.20
2018-09-19T09:07:01.085Z,98.10
2018-09-19T09:09:29.177Z,98.00
2018-09-19T09:11:57.312Z,97.60
2018-09-19T09:14:25.438Z,97.30
2018-09-19T09:16:53.616Z,98.10
2018-09-19T09:19:21.816Z,97.40
2018-09-19T09:21:49.899Z,97.20
2018-09-19T09:24:18.081Z,96.80
2018-09-19T09:26:46.323Z,96.50
2018-09-19T09:29:14.488Z,96.10
2018-09-19T09:31:42.632Z,96.00
2018-09-19T09:34:10.846Z,96.70
2018-09-19T09:36:39.058Z,95.50
2018-09-19T09:39:07.438Z,95.80
2018-09-19T09:41:36.066Z,93.90
2018-09-19T09:44:04.325Z,94.00
2018-09-19T09:46:32.576Z,94.20
2018-09-19T09:49:00.674Z,93.70
2018-09-19T09:51:28.794Z,93.00
2018-09-19T09:53:56.939Z,92.10
2018-09-19T09:56:25.105Z,92.00
2018-09-19T09:58:53.221Z,92.90
2018-09-19T10:01:21.403Z,91.80
2018-09-19T10:03:49.585Z,91.30
2018-09-19T10:06:17.770Z,91.00
2018-09-19T10:08:45.972Z,90.80
2018-09-19T10:11:14.134Z,90.60
2018-09-19T10:13:42.342Z,90.30
2018-09-19T10:16:10.845Z,87.70
2018-09-19T10:18:39.020Z,86.90
2018-09-19T10:21:07.325Z,85.80
2018-09-19T10:23:35.498Z,85.20
2018-09-19T10:26:03.684Z,84.10
2018-09-19T10:28:31.865Z,84.40
2018-09-19T10:31:00.047Z,83.10
2018-09-19T10:33:28.229Z,85.00
2018-09-19T10:35:56.434Z,84.20
2018-09-19T10:38:24.597Z,82.30
2018-09-19T10:40:52.786Z,81.60
2018-09-19T10:43:20.962Z,79.80
2018-09-19T10:45:49.058Z,82.20
2018-09-19T10:48:17.265Z,81.20
2018-09-19T10:50:45.351Z,78.10
2018-09-19T10:53:13.518Z,77.40
2018-09-19T10:55:41.697Z,76.00
2018-09-19T10:58:09.883Z,78.00
2018-09-19T11:00:37.987Z,78.40
2018-09-19T11:03:06.177Z,76.60
2018-09-19T11:05:34.342Z,74.60
2018-09-19T11:08:02.528Z,73.20
2018-09-19T11:10:30.609Z,74.30
2018-09-19T11:12:58.804Z,72.70
2018-09-19T11:15:26.990Z,70.50
2018-09-19T11:17:55.179Z,69.70
2018-09-19T11:20:23.263Z,67.40
2018-09-19T11:22:51.446Z,66.70
2018-09-19T11:25:19.634Z,67.40
2018-09-19T11:27:47.822Z,65.70
2018-09-19T11:30:16.027Z,64.30
2018-09-19T11:32:44.194Z,63.70
2018-09-19T11:35:12.438Z,63.30
2018-09-19T11:37:40.607Z,63.50
2018-09-19T11:40:08.480Z,61.00
2018-09-19T11:42:36.637Z,62.10
2018-09-19T11:45:04.889Z,62.50
2018-09-19T11:47:33.005Z,60.90
2018-09-19T11:50:01.128Z,59.80
2018-09-19T11:52:29.294Z,58.40
2018-09-19T11:54:57.481Z,60.10
2018-09-19T11:57:25.655Z,58.20
2018-09-19T11:59:53.854Z,58.70
2018-09-19T12:02:21.965Z,57.40
2018-09-19T12:04:50.119Z,57.70
2018-09-19T12:07:18.308Z,56.60
2018-09-19T12:09:46.514Z,57.20
2018-09-19T12:12:14.674Z,56.00
2018-09-19T12:14:42.934Z,55.50
2018-09-19T12:17:11.060Z,55.80
2018-09-19T12:19:39.254Z,55.90
2018-09-19T12:22:07.427Z,57.00
2018-09-19T12:24:35.627Z,56.40
2018-09-19T12:27:03.816Z,55.10
2018-09-19T12:29:32.002Z,56.60
2018-09-19T12:32:00.166Z,57.00
2018-09-19T12:34:28.254Z,54.70
2018-09-19T12:36:56.430Z,53.10
2018-09-19T12:39:24.568Z,52.50
2018-09-19T12:41:52.706Z,52.80
2018-09-19T12:44:20.817Z,52.10
2018-09-19T12:46:49.001Z,52.00
2018-09-19T12:49:17.441Z,52.60
2018-09-19T12:51:45.557Z,51.80
2018-09-19T12:54:13.648Z,51.70
2018-09-19T12:56:41.831Z,53.10
2018-09-19T12:59:09.910Z,51.60
2018-09-19T13:01:38.001Z,51.40
2018-09-19T13:04:06.179Z,50.90
2018-09-19T13:06:34.280Z,50.70
2018-09-19T13:09:02.478Z,50.60
2018-09-19T13:11:30.682Z,50.50
2018-09-19T13:13:59.067Z,50.80
2018-09-19T13:16:27.225Z,50.40
2018-09-19T13:18:55.402Z,50.70
2018-09-19T13:21:23.493Z,51.30
2018-09-19T13:23:52.490Z,50.60
2018-09-19T13:26:20.595Z,51.80
2018-09-19T13:28:48.782Z,51.00
2018-09-19T13:31:17.102Z,50.90
2018-09-19T13:33:45.254Z,49.80
2018-09-19T13:36:13.474Z,50.30
2018-09-19T13:38:41.636Z,51.60
2018-09-19T13:41:09.927Z,50.80
2018-09-19T13:43:38.417Z,50.30
2018-09-19T13:46:06.793Z,51.00
2018-09-19T13:48:34.990Z,49.00
2018-09-19T13:51:11.906Z,49.50
2018-09-19T13:53:40.074Z,48.80
2018-09-19T13:56:08.284Z,48.90
2018-09-19T13:58:36.443Z,50.50
2018-09-19T14:01:04.633Z,49.70
2018-09-19T14:03:32.810Z,48.80
2018-09-19T14:06:01.009Z,48.60
2018-09-19T14:08:29.245Z,49.30
2018-09-19T14:10:58.428Z,49.60
2018-09-19T14:13:26.586Z,51.00
2018-09-19T14:15:54.785Z,52.50
2018-09-19T14:18:22.977Z,52.40
2018-09-19T14:20:51.159Z,53.90
2018-09-19T14:23:19.342Z,54.30
2018-09-19T14:25:47.534Z,54.30
2018-09-19T14:28:15.784Z,53.70
2018-09-19T14:30:43.898Z,53.20
2018-09-19T14:33:12.083Z,54.60
2018-09-19T14:35:40.193Z,53.80
2018-09-19T14:38:08.346Z,52.40
2018-09-19T14:40:36.448Z,51.60
2018-09-19T14:43:04.542Z,50.80
2018-09-19T14:45:32.710Z,52.10
2018-09-19T14:48:00.901Z,51.40
2018-09-19T14:50:29.062Z,50.00
2018-09-19T14:52:57.166Z,49.70
2018-09-19T14:55:25.342Z,49.80
2018-09-19T14:57:53.457Z,49.70
2018-09-19T15:00:21.697Z,49.00
2018-09-19T15:02:49.806Z,48.70
2018-09-19T15:05:17.886Z,49.20
2018-09-19T15:07:46.000Z,50.50
2018-09-19T15:10:14.162Z,48.70
2018-09-19T15:12:42.250Z,48.00
2018-09-19T15:15:10.458Z,48.60
2018-09-19T15:17:38.636Z,48.50
2018-09-19T15:20:07.312Z,49.10
2018-09-19T15:22:35.407Z,48.50
2018-09-19T15:25:03.596Z,48.80
2018-09-19T15:27:31.784Z,48.70
2018-09-19T15:29:59.953Z,50.40
2018-09-19T15:32:28.056Z,49.20
2018-09-19T15:34:56.228Z,48.60
2018-09-19T15:37:24.336Z,48.50
2018-09-19T15:39:52.526Z,48.50
2018-09-19T15:42:20.755Z,48.70
2018-09-19T15:44:48.886Z,49.10
2018-09-19T15:47:17.066Z,49.30
2018-09-19T15:49:45.400Z,48.80
2018-09-19T15:52:13.553Z,49.00
2018-09-19T15:54:41.789Z,48.80
2018-09-19T15:57:09.957Z,49.60
2018-09-19T15:59:38.123Z,50.10
2018-09-19T16:02:06.290Z,50.70
2018-09-19T16:04:34.534Z,50.90
2018-09-19T16:07:02.685Z,51.40
2018-09-19T16:09:30.845Z,52.20
2018-09-19T16:11:58.930Z,52.50
2018-09-19T16:14:27.038Z,53.20
2018-09-19T16:16:55.235Z,55.30
2018-09-19T16:19:23.401Z,55.60
2018-09-19T16:21:51.646Z,56.20
2018-09-19T16:24:19.791Z,57.30
2018-09-19T16:26:47.953Z,56.90
2018-09-19T16:29:16.209Z,56.60
2018-09-19T16:31:44.333Z,56.50
2018-09-19T16:34:12.530Z,56.90
2018-09-19T16:36:40.711Z,56.80
2018-09-19T16:39:10.282Z,57.40
2018-09-19T16:41:38.410Z,58.60
2018-09-19T16:44:06.837Z,58.80
2018-09-19T16:46:35.729Z,58.50
2018-09-19T16:49:04.338Z,60.20
2018-09-19T16:51:32.634Z,61.30
2018-09-19T16:54:01.534Z,59.90
2018-09-19T16:56:29.710Z,61.40
2018-09-19T16:58:57.874Z,62.20
2018-09-19T17:01:26.182Z,60.40
2018-09-19T17:03:54.349Z,61.40
2018-09-19T17:06:22.538Z,61.00
2018-09-19T17:08:50.722Z,61.70
2018-09-19T17:11:18.812Z,61.90
2018-09-19T17:13:47.018Z,63.90
2018-09-19T17:16:15.506Z,63.70
2018-09-19T17:18:43.675Z,64.70
2018-09-19T17:21:11.849Z,64.20
2018-09-19T17:23:39.933Z,64.90
2018-09-19T17:26:08.027Z,64.70
2018-09-19T17:28:36.222Z,65.60
2018-09-19T17:31:04.437Z,66.60
2018-09-19T17:33:32.592Z,64.60
2018-09-19T17:36:00.681Z,64.70
2018-09-19T17:38:28.859Z,65.70
2018-09-19T17:40:57.063Z,67.10
2018-09-19T17:43:25.244Z,66.70
2018-09-19T17:45:53.348Z,67.30
2018-09-19T17:48:21.502Z,68.20
2018-09-19T17:50:49.826Z,69.00
2018-09-19T17:53:18.006Z,68.20
2018-09-19T17:55:46.183Z,69.50
2018-09-19T17:58:14.499Z,70.50
2018-09-19T18:00:42.671Z,71.10
2018-09-19T18:03:10.867Z,71.70
2018-09-19T18:05:39.263Z,71.60
2018-09-19T18:08:07.694Z,71.00
2018-09-19T18:10:35.818Z,72.10
2018-09-19T18:13:03.994Z,73.20
2018-09-19T18:15:32.197Z,74.10
2018-09-19T18:18:00.366Z,74.50
2018-09-19T18:20:28.585Z,74.70
2018-09-19T18:22:56.750Z,75.40
2018-09-19T18:25:24.939Z,75.70
2018-09-19T18:27:53.115Z,76.20
2018-09-19T18:30:21.334Z,77.00
2018-09-19T18:32:49.483Z,77.60
2018-09-19T18:35:17.673Z,78.40
2018-09-19T18:37:45.758Z,78.20
2018-09-19T18:40:13.962Z,79.00
2018-09-19T18:42:42.165Z,79.80
2018-09-19T18:45:10.335Z,80.40
2018-09-19T18:47:38.513Z,80.60
2018-09-19T18:50:06.734Z,81.70
2018-09-19T18:52:34.957Z,82.00
2018-09-19T18:55:03.066Z,81.90
2018-09-19T18:57:31.286Z,82.70
2018-09-19T18:59:59.442Z,83.40
2018-09-19T19:02:27.641Z,83.00
2018-09-19T19:04:55.754Z,83.70
2018-09-19T19:07:23.906Z,84.40
2018-09-19T19:09:52.098Z,84.20
2018-09-19T19:12:20.290Z,84.70
2018-09-19T19:14:48.454Z,85.30
2018-09-19T19:17:16.693Z,86.50
2018-09-19T19:19:44.843Z,86.60
2018-09-19T19:22:13.054Z,86.80
2018-09-19T19:24:41.218Z,87.00
2018-09-19T19:27:09.567Z,87.40
2018-09-19T19:29:37.970Z,87.80
2018-09-19T19:32:06.241Z,88.50
2018-09-19T19:34:34.394Z,89.10
2018-09-19T19:37:02.577Z,89.50
2018-09-19T19:39:30.754Z,90.00
2018-09-19T19:41:58.934Z,90.20
2018-09-19T19:44:27.114Z,90.40
2018-09-19T19:46:56.047Z,90.60
2018-09-19T19:49:24.219Z,90.70
2018-09-19T19:51:52.397Z,90.80
2018-09-19T19:54:20.570Z,90.90
2018-09-19T19:56:48.802Z,91.00
2018-09-19T19:59:16.953Z,91.30
2018-09-19T20:01:45.034Z,91.60
2018-09-19T20:04:13.261Z,92.20
2018-09-19T20:06:41.429Z,92.40
2018-09-19T20:09:09.958Z,92.70
2018-09-19T20:11:38.629Z,93.00
2018-09-19T20:14:06.787Z,93.10
2018-09-19T20:16:35.014Z,93.30
2018-09-19T20:19:03.294Z,93.40
2018-09-19T20:21:31.718Z,93.60
2018-09-19T20:23:59.844Z,93.90
2018-09-19T20:26:28.078Z,94.10
2018-09-19T20:28:56.229Z,94.20
2018-09-19T20:31:24.431Z,94.30
2018-09-19T20:33:52.590Z,94.60
2018-09-19T20:36:20.805Z,94.80
2018-09-19T20:38:48.957Z,95.00
2018-09-19T20:41:17.246Z,95.10
2018-09-19T20:43:45.341Z,95.20
2018-09-19T20:46:13.593Z,95.20
2018-09-19T20:48:41.722Z,95.60
2018-09-19T20:51:09.906Z,95.80
2018-09-19T20:53:38.440Z,95.60
2018-09-19T20:56:06.646Z,95.90
2018-09-19T20:58:34.778Z,95.80
2018-09-19T21:01:02.970Z,95.90
2018-09-19T21:03:31.153Z,96.00
2018-09-19T21:05:59.346Z,96.20
2018-09-19T21:08:27.545Z,96.40
2018-09-19T21:10:55.710Z,96.60
2018-09-19T21:13:23.901Z,96.70
2018-09-19T21:15:52.082Z,96.80
2018-09-19T21:18:20.290Z,96.80
2018-09-19T21:20:48.450Z,96.90
2018-09-19T21:23:16.659Z,96.80
2018-09-19T21:25:44.868Z,96.90
2018-09-19T21:28:13.034Z,97.00
2018-09-19T21:30:41.185Z,97.10
2018-09-19T21:33:09.273Z,97.10
2018-09-19T21:35:37.445Z,97.10
2018-09-19T21:38:05.611Z,97.30
2018-09-19T21:40:33.785Z,97.50
2018-09-19T21:43:01.919Z,97.50
2018-09-19T21:45:30.090Z,97.70
2018-09-19T21:47:58.198Z,98.10
2018-09-19T21:50:26.461Z,97.80
2018-09-19T21:52:54.562Z,97.90
2018-09-19T21:55:22.742Z,98.20
2018-09-19T21:57:50.841Z,98.30
2018-09-19T22:00:19.042Z,98.30
2018-09-19T22:02:47.206Z,98.50
2018-09-19T22:05:15.399Z,98.60
2018-09-19T22:07:43.583Z,98.60
2018-09-19T22:10:11.665Z,98.70
2018-09-19T22:12:39.842Z,98.60
2018-09-19T22:15:08.245Z,98.50
2018-09-19T22:17:36.442Z,98.70
2018-09-19T22:20:04.637Z,98.90
2018-09-19T22:22:32.805Z,98.80
2018-09-19T22:25:01.000Z,99.00
2018-09-19T22:27:29.233Z,99.40
2018-09-19T22:29:57.366Z,99.20
2018-09-19T22:32:25.582Z,99.30
2018-09-19T22:34:53.762Z,99.50
2018-09-19T22:37:21.936Z,99.40
2018-09-19T22:39:50.106Z,99.40
2018-09-19T22:42:18.203Z,99.40
2018-09-19T22:44:46.394Z,99.50
2018-09-19T22:47:14.594Z,99.60
2018-09-19T22:49:42.777Z,99.70
2018-09-19T22:52:10.962Z,99.70
2018-09-19T22:54:39.145Z,99.90
2018-09-19T22:57:07.317Z,99.90
2018-09-19T22:59:35.558Z,99.90
2018-09-19T23:02:03.706Z,99.90
2018-09-19T23:04:31.890Z,99.90
2018-09-19T23:07:00.302Z,99.90
2018-09-19T23:09:28.475Z,99.90
2018-09-19T23:11:56.653Z,99.90
2018-09-19T23:14:24.850Z,99.90
2018-09-19T23:16:53.023Z,99.90
2018-09-19T23:19:21.220Z,99.90
2018-09-19T23:21:49.529Z,99.90
2018-09-19T23:24:17.689Z,99.90
2018-09-19T23:26:45.766Z,99.90
2018-09-19T23:29:13.981Z,99.90
2018-09-19T23:31:42.149Z,99.90
2018-09-19T23:34:10.322Z,99.90
2018-09-19T23:36:38.413Z,99.90
2018-09-19T23:39:07.960Z,99.90
2018-09-19T23:41:36.130Z,99.90
2018-09-19T23:44:04.298Z,99.90
2018-09-19T23:46:32.422Z,99.90
2018-09-19T23:49:00.570Z,99.90
2018-09-19T23:51:28.660Z,99.90
2018-09-19T23:53:56.838Z,99.90
2018-09-19T23:56:24.926Z,99.90
2018-09-19T23:58:53.010Z,99.90
